Time;durP1;ratioP1;P1;durP2;ratioP2;P2;SDS_P1;SDS_P2;PMS_P1;PMS_P2;Temp;Humidity;BMP_temperature;BMP_pressure;BME280_temperature;BME280_humidity;BME280_pressure;Samples;Min_cycle;Max_cycle;Signal;HPM_P1;HPM_P2
2021/06/20 00:01:37;;;;;;;2.83;1.73;;;26.20;99.90;;;;;;4957472;29;20303;-89
2021/06/20 00:04:08;;;;;;;4.20;1.47;;;26.50;99.90;;;;;;4959657;28;20239;-89
2021/06/20 00:06:39;;;;;;;3.43;1.50;;;26.70;99.90;;;;;;4968727;28;20700;-87
2021/06/20 00:09:11;;;;;;;4.30;1.60;;;26.60;99.90;;;;;;4978214;28;20210;-85
2021/06/20 00:11:46;;;;;;;1.97;1.70;;;26.50;99.90;;;;;;4976769;28;20250;-89
2021/06/20 00:14:17;;;;;;;2.37;1.53;;;26.70;99.90;;;;;;4978025;28;20301;-88
2021/06/20 00:16:49;;;;;;;3.13;1.43;;;26.70;99.90;;;;;;4978564;28;20219;-88
2021/06/20 00:19:20;;;;;;;2.20;1.37;;;26.70;99.90;;;;;;4982305;28;20250;-89
2021/06/20 00:21:51;;;;;;;3.90;1.67;;;26.90;99.90;;;;;;4975307;28;20235;-88
2021/06/20 00:24:22;;;;;;;2.97;1.63;;;26.70;99.90;;;;;;4977548;28;20242;-89
2021/06/20 00:26:55;;;;;;;3.37;1.60;;;26.80;99.90;;;;;;4977179;28;20454;-89
2021/06/20 00:29:26;;;;;;;2.43;1.60;;;26.90;99.90;;;;;;4976646;28;20298;-89
2021/06/20 00:31:57;;;;;;;2.53;1.63;;;26.60;99.90;;;;;;4977925;28;20250;-89
2021/06/20 00:34:28;;;;;;;3.10;1.70;;;26.70;99.90;;;;;;4976361;28;20294;-89
2021/06/20 00:37:01;;;;;;;3.53;1.93;;;26.60;99.90;;;;;;4978250;28;20672;-89
2021/06/20 00:39:32;;;;;;;2.80;1.77;;;26.60;99.90;;;;;;4977893;28;20334;-89
2021/06/20 00:42:05;;;;;;;2.00;1.80;;;26.70;99.90;;;;;;4977111;28;20210;-88
2021/06/20 00:44:45;;;;;;;4.17;1.60;;;26.80;99.90;;;;;;4980275;28;20564;-89
2021/06/20 00:47:17;;;;;;;1.70;1.50;;;26.90;99.90;;;;;;4997256;28;20233;-89
2021/06/20 00:49:49;;;;;;;2.40;1.60;;;27.20;99.90;;;;;;4994374;28;20675;-90
2021/06/20 00:52:20;;;;;;;2.13;1.70;;;27.60;99.90;;;;;;4978360;28;20230;-89
2021/06/20 00:54:52;;;;;;;2.20;1.50;;;28.30;99.90;;;;;;4977627;28;20211;-88
2021/06/20 00:57:25;;;;;;;4.73;1.73;;;28.20;99.90;;;;;;4977190;28;20206;-89
2021/06/20 00:59:56;;;;;;;2.53;1.60;;;28.50;99.90;;;;;;4988573;28;20300;-90
2021/06/20 01:02:27;;;;;;;2.87;1.77;;;28.60;99.90;;;;;;4958686;29;20662;-89
2021/06/20 01:04:58;;;;;;;2.63;1.70;;;29.10;99.90;;;;;;4966080;28;20234;-88
2021/06/20 01:07:29;;;;;;;2.77;1.70;;;29.10;99.90;;;;;;4976364;28;20231;-89
2021/06/20 01:10:00;;;;;;;3.00;1.63;;;29.10;99.90;;;;;;4975919;28;20346;-90
2021/06/20 01:12:33;;;;;;;3.40;1.50;;;29.60;99.90;;;;;;4980376;28;20529;-89
2021/06/20 01:15:06;;;;;;;4.50;1.80;;;29.50;99.90;;;;;;4983941;28;20219;-88
2021/06/20 01:17:38;;;;;;;3.70;1.60;;;29.60;99.90;;;;;;4977898;28;20618;-90
2021/06/20 01:20:11;;;;;;;1.70;1.47;;;29.50;99.90;;;;;;4977447;28;20798;-89
2021/06/20 01:22:47;;;;;;;3.10;1.70;;;29.90;99.90;;;;;;4978200;28;20258;-93
2021/06/20 01:25:22;;;;;;;1.77;1.30;;;29.70;99.90;;;;;;4991525;28;20750;-91
2021/06/20 01:27:58;;;;;;;2.80;1.53;;;29.70;99.90;;;;;;4995049;28;20229;-92
2021/06/20 01:30:30;;;;;;;2.60;1.57;;;29.90;99.90;;;;;;4633406;28;9999975;-91
2021/06/20 01:33:03;;;;;;;3.20;1.57;;;29.70;99.90;;;;;;4976100;28;20230;-90
2021/06/20 01:35:34;;;;;;;3.10;1.67;;;30.00;99.90;;;;;;4979872;28;20249;-89
2021/06/20 01:38:09;;;;;;;3.50;1.53;;;30.40;99.90;;;;;;4976153;28;20258;-90
2021/06/20 01:40:40;;;;;;;1.47;1.30;;;30.20;99.90;;;;;;4965803;28;20293;-89
2021/06/20 01:43:13;;;;;;;1.97;1.40;;;30.30;99.90;;;;;;4972252;28;20215;-89
2021/06/20 01:45:44;;;;;;;2.47;1.50;;;30.20;99.90;;;;;;4999742;28;20231;-89
2021/06/20 01:48:14;;;;;;;2.57;1.40;;;30.50;99.90;;;;;;4990330;28;20230;-90
2021/06/20 01:50:45;;;;;;;4.57;1.43;;;30.30;99.90;;;;;;4990035;28;20883;-88
2021/06/20 01:53:18;;;;;;;1.23;1.13;;;30.00;99.90;;;;;;4976134;28;20291;-89
2021/06/20 01:55:50;;;;;;;2.77;1.47;;;30.00;99.90;;;;;;4977876;28;20203;-89
2021/06/20 01:58:21;;;;;;;5.23;1.27;;;29.90;99.90;;;;;;4976006;28;20250;-93
2021/06/20 02:00:56;;;;;;;1.83;1.13;;;30.00;99.90;;;;;;4976757;28;20277;-87
2021/06/20 02:03:29;;;;;;;2.53;1.20;;;29.70;99.90;;;;;;4976657;28;21017;-91
2021/06/20 02:06:01;;;;;;;2.73;1.20;;;29.70;99.90;;;;;;4975897;28;20238;-90
2021/06/20 02:08:35;;;;;;;3.73;1.23;;;29.60;99.90;;;;;;4976122;28;20245;-92
2021/06/20 02:11:06;;;;;;;4.73;1.30;;;29.70;99.90;;;;;;4974211;28;20297;-89
2021/06/20 02:13:37;;;;;;;1.60;1.10;;;29.70;99.90;;;;;;4975178;28;20253;-88
2021/06/20 02:16:08;;;;;;;1.53;1.43;;;29.50;99.90;;;;;;4975474;28;20217;-89
2021/06/20 02:18:39;;;;;;;2.33;1.27;;;29.40;99.90;;;;;;4985924;28;20214;-87
2021/06/20 02:21:10;;;;;;;1.67;1.20;;;29.30;99.90;;;;;;4973217;28;20235;-87
2021/06/20 02:23:43;;;;;;;1.83;1.20;;;29.40;99.90;;;;;;4974724;28;20701;-89
2021/06/20 02:26:13;;;;;;;2.27;1.20;;;29.80;99.90;;;;;;4977442;28;20273;-90
2021/06/20 02:28:44;;;;;;;1.27;0.80;;;29.30;99.90;;;;;;4981700;28;20669;-89
2021/06/20 02:31:15;;;;;;;2.60;1.70;;;29.40;99.90;;;;;;4979933;28;20250;-89
2021/06/20 02:33:46;;;;;;;3.40;1.27;;;29.30;99.90;;;;;;4975065;28;20595;-86
2021/06/20 02:36:16;;;;;;;2.53;1.20;;;28.80;99.90;;;;;;4974557;28;20226;-88
2021/06/20 02:38:49;;;;;;;2.93;1.40;;;28.20;99.90;;;;;;4985787;28;20203;-89
2021/06/20 02:41:19;;;;;;;2.13;1.20;;;27.30;99.90;;;;;;4966835;28;20270;-87
2021/06/20 02:43:51;;;;;;;3.13;1.13;;;26.50;99.90;;;;;;4989089;28;20261;-87
2021/06/20 02:46:22;;;;;;;4.43;1.67;;;25.70;99.90;;;;;;4972531;28;20234;-86
2021/06/20 02:48:52;;;;;;;3.03;1.10;;;25.20;99.90;;;;;;4974159;28;20206;-87
2021/06/20 02:51:23;;;;;;;2.67;1.30;;;24.80;99.90;;;;;;4977059;28;20306;-88
2021/06/20 02:53:56;;;;;;;2.43;1.20;;;24.40;99.90;;;;;;4974084;28;20295;-87
2021/06/20 02:56:27;;;;;;;4.47;1.70;;;23.90;99.90;;;;;;4975903;28;20592;-86
2021/06/20 02:58:58;;;;;;;2.30;1.10;;;23.60;99.90;;;;;;4987733;28;20648;-86
2021/06/20 03:01:28;;;;;;;3.43;1.30;;;23.40;99.90;;;;;;4973929;28;20349;-88
2021/06/20 03:03:59;;;;;;;4.73;1.50;;;23.30;99.90;;;;;;4979160;28;20224;-87
2021/06/20 03:06:30;;;;;;;3.53;1.20;;;23.10;99.90;;;;;;4987841;28;20270;-87
2021/06/20 03:09:04;;;;;;;3.70;1.43;;;22.90;99.90;;;;;;4984130;28;20281;-88
2021/06/20 03:11:41;;;;;;;4.73;1.00;;;22.90;99.90;;;;;;4963135;28;20224;-88
2021/06/20 03:14:13;;;;;;;2.53;1.23;;;22.80;99.90;;;;;;4987850;28;20237;-89
2021/06/20 03:16:45;;;;;;;2.43;1.13;;;22.80;99.90;;;;;;4994172;28;20210;-88
2021/06/20 03:19:16;;;;;;;1.03;0.87;;;22.70;99.90;;;;;;4984089;28;20221;-88
2021/06/20 03:21:47;;;;;;;1.83;1.37;;;22.60;99.90;;;;;;4968747;28;20342;-88
2021/06/20 03:24:20;;;;;;;3.07;1.20;;;22.60;99.90;;;;;;4970699;28;20241;-88
2021/06/20 03:26:51;;;;;;;1.30;1.07;;;22.50;99.90;;;;;;4978567;28;20233;-88
2021/06/20 03:29:22;;;;;;;2.30;1.20;;;22.40;99.90;;;;;;4984255;28;20670;-89
2021/06/20 03:31:54;;;;;;;3.27;1.10;;;22.30;99.90;;;;;;4982886;28;20206;-90
2021/06/20 03:34:25;;;;;;;3.33;1.20;;;22.30;99.90;;;;;;4997276;28;20214;-89
2021/06/20 03:36:57;;;;;;;4.10;1.27;;;22.10;99.90;;;;;;4999058;28;20258;-89
2021/06/20 03:39:30;;;;;;;3.23;1.37;;;22.00;99.90;;;;;;4996739;28;20191;-89
2021/06/20 03:42:01;;;;;;;2.40;1.37;;;22.00;99.90;;;;;;4998687;28;20750;-89
2021/06/20 03:44:33;;;;;;;2.03;1.07;;;21.90;99.90;;;;;;4980574;28;20655;-89
2021/06/20 03:47:05;;;;;;;2.00;1.10;;;21.80;99.90;;;;;;4993410;28;20346;-88
2021/06/20 03:49:36;;;;;;;3.47;1.40;;;21.60;99.90;;;;;;4977672;28;20225;-88
2021/06/20 03:52:07;;;;;;;3.30;1.00;;;21.50;99.90;;;;;;4975854;28;20274;-89
2021/06/20 03:54:39;;;;;;;3.57;1.40;;;21.50;99.90;;;;;;4978591;28;20218;-89
2021/06/20 03:57:10;;;;;;;5.40;1.50;;;21.40;99.90;;;;;;4976870;28;20671;-90
2021/06/20 03:59:43;;;;;;;2.90;1.60;;;21.40;99.90;;;;;;4976551;28;20207;-89
2021/06/20 04:02:14;;;;;;;3.27;1.67;;;21.20;99.90;;;;;;4976259;28;20344;-89
2021/06/20 04:04:46;;;;;;;5.27;1.87;;;21.20;99.90;;;;;;4991331;28;20295;-88
2021/06/20 04:07:17;;;;;;;2.60;1.70;;;21.10;99.90;;;;;;4977394;28;20294;-89
2021/06/20 04:09:50;;;;;;;7.77;4.00;;;21.10;99.90;;;;;;4976505;28;20281;-90
2021/06/20 04:12:21;;;;;;;3.17;1.73;;;20.80;99.90;;;;;;4992681;28;20230;-90
2021/06/20 04:14:53;;;;;;;2.63;1.40;;;20.60;99.90;;;;;;4998692;28;20246;-90
2021/06/20 04:17:24;;;;;;;3.83;1.70;;;20.50;99.90;;;;;;4992477;28;20242;-88
2021/06/20 04:19:55;;;;;;;2.67;1.50;;;20.40;99.90;;;;;;4976751;28;20229;-89
2021/06/20 04:22:26;;;;;;;5.63;1.53;;;20.30;99.90;;;;;;4978609;28;20242;-88
2021/06/20 04:24:59;;;;;;;3.27;1.63;;;20.20;99.90;;;;;;4987512;28;20203;-89
2021/06/20 04:27:30;;;;;;;2.63;1.53;;;20.10;99.90;;;;;;4982394;28;20622;-90
2021/06/20 04:30:01;;;;;;;3.27;1.80;;;20.10;99.90;;;;;;4988789;28;20531;-89
2021/06/20 04:32:33;;;;;;;3.27;1.50;;;20.00;99.90;;;;;;4978494;28;20751;-88
2021/06/20 04:35:05;;;;;;;3.53;1.50;;;20.00;99.90;;;;;;4973846;28;20207;-89
2021/06/20 04:37:36;;;;;;;2.70;1.73;;;19.90;99.90;;;;;;4974309;28;20627;-89
2021/06/20 04:40:13;;;;;;;4.37;1.70;;;19.90;99.90;;;;;;4974200;28;20215;-90
2021/06/20 04:42:46;;;;;;;6.57;1.93;;;19.90;99.90;;;;;;4977169;28;20254;-89
2021/06/20 04:45:18;;;;;;;4.40;1.67;;;19.80;99.90;;;;;;4978398;28;20215;-89
2021/06/20 04:47:49;;;;;;;2.30;1.50;;;19.80;99.90;;;;;;4983278;28;20218;-90
2021/06/20 04:50:20;;;;;;;4.13;1.97;;;19.80;99.90;;;;;;4997037;28;20294;-90
2021/06/20 04:52:51;;;;;;;3.73;1.60;;;19.70;99.90;;;;;;4997056;28;20655;-89
2021/06/20 04:55:24;;;;;;;4.83;1.60;;;19.70;99.90;;;;;;4996821;28;20206;-89
2021/06/20 04:57:55;;;;;;;2.73;1.60;;;19.70;99.90;;;;;;4991683;28;20271;-89
2021/06/20 05:00:26;;;;;;;2.90;1.60;;;19.70;99.90;;;;;;4986241;28;20215;-89
2021/06/20 05:02:58;;;;;;;3.00;1.70;;;19.80;99.90;;;;;;4996631;28;20321;-89
2021/06/20 05:05:29;;;;;;;3.90;2.00;;;19.70;99.90;;;;;;4987947;28;20241;-89
2021/06/20 05:08:00;;;;;;;9.33;3.30;;;19.70;99.90;;;;;;4977009;28;20211;-89
2021/06/20 05:10:33;;;;;;;6.47;1.77;;;19.70;99.90;;;;;;4976225;28;20286;-89
2021/06/20 05:13:04;;;;;;;2.80;1.70;;;19.60;99.90;;;;;;4984942;28;20279;-89
2021/06/20 05:15:35;;;;;;;5.00;2.03;;;19.50;99.90;;;;;;4994840;28;20214;-89
2021/06/20 05:18:07;;;;;;;5.77;2.17;;;19.50;99.90;;;;;;4996530;28;20301;-89
2021/06/20 05:20:37;;;;;;;3.33;1.70;;;19.50;99.90;;;;;;4995164;28;20293;-89
2021/06/20 05:23:08;;;;;;;5.83;2.10;;;19.50;99.90;;;;;;4957067;29;20306;-90
2021/06/20 05:25:41;;;;;;;3.00;1.93;;;19.50;99.90;;;;;;4957132;29;20294;-89
2021/06/20 05:28:12;;;;;;;4.60;2.23;;;19.50;99.90;;;;;;4969614;28;20293;-89
2021/06/20 05:30:45;;;;;;;3.40;2.17;;;19.50;99.90;;;;;;4995666;28;20230;-90
2021/06/20 05:33:16;;;;;;;2.63;1.60;;;19.50;99.90;;;;;;4987658;28;20249;-89
2021/06/20 05:35:47;;;;;;;2.23;1.57;;;19.50;99.90;;;;;;4993999;28;20207;-90
2021/06/20 05:38:19;;;;;;;5.23;1.57;;;19.50;99.90;;;;;;4981865;28;20239;-89
2021/06/20 05:40:52;;;;;;;3.37;1.73;;;19.50;99.90;;;;;;4981545;28;20241;-89
2021/06/20 05:43:23;;;;;;;1.73;1.40;;;19.40;99.90;;;;;;4981316;28;20321;-90
2021/06/20 05:45:53;;;;;;;4.67;1.90;;;19.40;99.90;;;;;;4976845;28;20253;-89
2021/06/20 05:48:24;;;;;;;4.17;1.80;;;19.40;99.90;;;;;;4976518;28;20232;-90
2021/06/20 05:50:55;;;;;;;3.97;1.73;;;19.40;99.90;;;;;;4979942;28;20206;-89
2021/06/20 05:53:26;;;;;;;3.27;1.50;;;19.40;99.90;;;;;;4995808;28;20687;-90
2021/06/20 05:55:59;;;;;;;3.23;1.77;;;19.40;99.90;;;;;;4997582;28;20234;-90
2021/06/20 05:58:29;;;;;;;3.83;1.63;;;19.30;99.90;;;;;;4998574;28;20297;-90
2021/06/20 06:01:00;;;;;;;2.90;1.50;;;19.30;99.90;;;;;;4982816;28;20290;-89
2021/06/20 06:03:33;;;;;;;4.83;2.10;;;19.30;99.90;;;;;;4977034;28;20243;-90
2021/06/20 06:06:05;;;;;;;3.27;1.67;;;19.30;99.90;;;;;;4978273;28;20207;-89
2021/06/20 06:08:36;;;;;;;2.30;1.60;;;19.20;99.90;;;;;;4980023;28;20242;-89
2021/06/20 06:11:09;;;;;;;2.23;1.50;;;19.20;99.90;;;;;;4979040;28;20211;-89
2021/06/20 06:13:40;;;;;;;5.30;1.93;;;19.10;99.90;;;;;;4979999;28;20294;-89
2021/06/20 06:16:11;;;;;;;4.07;1.83;;;19.10;99.90;;;;;;4980663;28;20267;-89
2021/06/20 06:18:42;;;;;;;3.17;1.50;;;19.10;99.90;;;;;;4992072;28;20301;-89
2021/06/20 06:21:15;;;;;;;30.30;2.90;;;19.10;99.90;;;;;;4992977;28;20213;-89
2021/06/20 06:23:45;;;;;;;5.03;1.77;;;19.10;99.90;;;;;;4977301;28;20231;-89
2021/06/20 06:26:24;;;;;;;2.13;1.43;;;19.00;99.90;;;;;;4975579;28;20219;-89
2021/06/20 06:28:55;;;;;;;2.20;1.60;;;19.00;99.90;;;;;;4975525;28;20265;-89
2021/06/20 06:31:26;;;;;;;2.60;1.43;;;19.00;99.90;;;;;;4975014;28;20270;-88
2021/06/20 06:33:56;;;;;;;3.80;1.70;;;19.00;99.90;;;;;;4976349;28;20294;-89
2021/06/20 06:36:27;;;;;;;3.23;1.27;;;18.90;99.90;;;;;;4977447;28;20759;-89
2021/06/20 06:38:58;;;;;;;2.90;1.30;;;18.80;99.90;;;;;;4990516;28;20214;-89
2021/06/20 06:41:32;;;;;;;1.83;1.13;;;18.80;99.90;;;;;;4996404;28;20210;-89
2021/06/20 06:44:03;;;;;;;1.87;1.13;;;18.80;99.90;;;;;;4997453;28;20226;-89
2021/06/20 06:46:34;;;;;;;2.33;1.20;;;18.70;99.90;;;;;;4978602;28;20245;-89
2021/06/20 06:49:05;;;;;;;2.20;1.40;;;18.70;99.90;;;;;;4975581;28;20219;-90
2021/06/20 06:51:36;;;;;;;3.07;1.10;;;18.70;99.90;;;;;;4975135;28;20238;-89
2021/06/20 06:54:07;;;;;;;3.63;1.20;;;18.60;99.90;;;;;;4975665;28;20226;-89
2021/06/20 06:56:40;;;;;;;1.13;0.97;;;18.50;99.90;;;;;;4976226;28;20631;-89
2021/06/20 06:59:11;;;;;;;1.87;1.00;;;18.50;99.90;;;;;;4975612;28;20305;-90
2021/06/20 07:01:43;;;;;;;2.47;1.23;;;18.50;99.90;;;;;;4975033;28;20298;-88
2021/06/20 07:04:14;;;;;;;0.97;0.90;;;18.50;99.90;;;;;;4978071;28;20235;-88
2021/06/20 07:06:47;;;;;;;1.90;0.90;;;18.30;99.90;;;;;;4996372;28;20210;-89
2021/06/20 07:09:22;;;;;;;1.50;1.00;;;18.30;99.90;;;;;;5190278;22;20321;-88
2021/06/20 07:11:55;;;;;;;3.70;1.00;;;18.20;99.90;;;;;;4998820;28;20618;-89
2021/06/20 07:14:26;;;;;;;1.13;1.07;;;18.20;99.90;;;;;;4997344;28;20304;-89
2021/06/20 07:16:58;;;;;;;1.40;0.90;;;18.10;99.90;;;;;;4997724;28;20206;-89
2021/06/20 07:19:29;;;;;;;1.93;1.00;;;18.10;99.90;;;;;;4994806;28;20218;-89
2021/06/20 07:22:01;;;;;;;1.50;1.00;;;18.10;99.90;;;;;;5001185;28;20214;-89
2021/06/20 07:24:32;;;;;;;1.60;1.00;;;18.10;99.90;;;;;;4993571;28;20316;-89
2021/06/20 07:27:08;;;;;;;2.47;0.90;;;18.10;99.90;;;;;;4994832;28;20206;-89
2021/06/20 07:29:40;;;;;;;0.90;0.83;;;18.00;99.90;;;;;;4994336;28;20291;-88
2021/06/20 07:32:11;;;;;;;2.57;0.90;;;18.00;99.90;;;;;;4993833;28;20882;-89
2021/06/20 07:34:42;;;;;;;1.40;0.80;;;18.00;99.90;;;;;;4994933;28;20214;-89
2021/06/20 07:37:18;;;;;;;1.47;0.90;;;17.90;99.90;;;;;;4999701;28;20236;-88
2021/06/20 07:39:49;;;;;;;1.40;0.90;;;17.90;99.90;;;;;;5008038;28;20206;-93
2021/06/20 07:42:22;;;;;;;1.90;0.93;;;17.80;99.90;;;;;;4996223;28;20289;-88
2021/06/20 07:44:54;;;;;;;1.80;0.90;;;17.80;99.90;;;;;;4994557;28;20233;-89
2021/06/20 07:47:25;;;;;;;0.93;0.70;;;17.80;99.90;;;;;;4995121;28;20217;-90
2021/06/20 07:49:55;;;;;;;1.77;0.70;;;17.70;99.90;;;;;;4993982;28;20302;-90
2021/06/20 07:52:26;;;;;;;1.47;0.80;;;17.70;99.90;;;;;;4994868;28;20211;-89
2021/06/20 07:54:57;;;;;;;1.30;0.90;;;17.70;99.90;;;;;;4999514;28;20552;-89
2021/06/20 07:57:29;;;;;;;2.20;0.60;;;17.60;99.90;;;;;;5014159;28;20618;-89
2021/06/20 08:00:00;;;;;;;2.33;0.80;;;17.60;99.90;;;;;;5012722;28;20296;-90
2021/06/20 08:02:31;;;;;;;1.03;0.77;;;17.50;99.90;;;;;;5013085;28;20225;-89
2021/06/20 08:05:03;;;;;;;0.73;0.57;;;17.50;99.90;;;;;;4997533;28;20210;-88
2021/06/20 08:07:35;;;;;;;2.10;1.10;;;17.50;99.90;;;;;;4993923;28;20211;-89
2021/06/20 08:10:06;;;;;;;1.90;0.93;;;17.40;99.90;;;;;;4992908;28;20215;-89
2021/06/20 08:12:43;;;;;;;1.67;0.80;;;17.40;99.90;;;;;;4995372;28;20206;-89
2021/06/20 08:15:15;;;;;;;1.33;0.90;;;17.40;99.90;;;;;;4995562;28;20217;-89
2021/06/20 08:17:46;;;;;;;1.83;1.03;;;17.40;99.90;;;;;;4997513;28;20590;-90
2021/06/20 08:20:18;;;;;;;1.20;0.97;;;17.40;99.90;;;;;;4996012;28;20214;-90
2021/06/20 08:22:49;;;;;;;1.10;0.77;;;17.40;99.90;;;;;;5013644;28;20309;-89
2021/06/20 08:25:20;;;;;;;1.40;0.70;;;17.40;99.90;;;;;;5017878;28;20241;-89
2021/06/20 08:27:54;;;;;;;1.80;0.80;;;17.40;99.90;;;;;;5017357;28;20294;-89
2021/06/20 08:30:25;;;;;;;2.20;0.80;;;17.30;99.90;;;;;;5009928;28;20305;-89
2021/06/20 08:32:56;;;;;;;2.30;0.77;;;17.20;99.90;;;;;;4997727;28;20288;-88
2021/06/20 08:35:27;;;;;;;2.77;1.10;;;17.10;99.90;;;;;;5000155;28;20210;-88
2021/06/20 08:37:58;;;;;;;1.40;0.80;;;17.10;99.90;;;;;;5001169;28;20218;-89
2021/06/20 08:40:29;;;;;;;0.87;0.60;;;17.00;99.90;;;;;;4999117;28;20213;-88
2021/06/20 08:43:01;;;;;;;1.53;0.90;;;17.00;99.90;;;;;;4998174;28;20206;-88
2021/06/20 08:45:32;;;;;;;0.93;0.70;;;17.00;99.90;;;;;;4997428;28;20296;-89
2021/06/20 08:48:04;;;;;;;2.23;0.80;;;16.90;99.90;;;;;;4997741;28;20655;-90
2021/06/20 08:50:34;;;;;;;2.53;0.80;;;16.80;99.90;;;;;;4997184;28;20293;-88
2021/06/20 08:53:06;;;;;;;1.10;0.77;;;16.80;99.90;;;;;;4999729;28;20315;-89
2021/06/20 08:55:36;;;;;;;1.83;0.80;;;16.70;99.90;;;;;;4998748;28;20233;-89
2021/06/20 08:58:22;;;;;;;2.50;0.80;;;16.70;99.90;;;;;;5002612;28;20301;-89
2021/06/20 09:00:53;;;;;;;2.70;0.90;;;16.70;99.90;;;;;;5003639;28;20266;-89
2021/06/20 09:03:24;;;;;;;1.57;1.10;;;16.70;99.90;;;;;;5014136;28;20228;-87
2021/06/20 09:06:02;;;;;;;1.40;1.10;;;16.60;99.90;;;;;;5018943;28;20202;-89
2021/06/20 09:08:33;;;;;;;2.37;1.00;;;16.50;99.90;;;;;;5032593;28;20202;-89
2021/06/20 09:11:05;;;;;;;2.23;1.77;;;16.50;99.90;;;;;;5018329;28;20230;-89
2021/06/20 09:13:38;;;;;;;2.90;1.97;;;16.50;99.90;;;;;;5015700;28;20221;-89
2021/06/20 09:16:10;;;;;;;5.50;2.57;;;16.50;99.90;;;;;;5010990;28;20225;-88
2021/06/20 09:18:51;;;;;;;4.23;2.40;;;16.50;99.90;;;;;;5001132;28;20731;-88
2021/06/20 09:21:24;;;;;;;3.93;1.90;;;16.40;99.90;;;;;;4995101;28;20297;-89
2021/06/20 09:23:56;;;;;;;2.87;1.70;;;16.40;99.90;;;;;;4996718;28;20615;-88
2021/06/20 09:26:41;;;;;;;2.53;1.27;;;16.30;99.90;;;;;;4996637;28;20341;-88
2021/06/20 09:29:13;;;;;;;3.43;1.30;;;16.40;99.90;;;;;;4996886;28;20229;-89
2021/06/20 09:31:48;;;;;;;2.33;1.30;;;16.30;99.90;;;;;;4997255;28;20207;-89
2021/06/20 09:34:20;;;;;;;2.20;1.10;;;16.30;99.90;;;;;;5021550;28;20212;-89
2021/06/20 09:37:01;;;;;;;2.73;1.07;;;16.20;99.90;;;;;;5007186;28;20234;-88
2021/06/20 09:39:33;;;;;;;2.40;1.10;;;16.20;99.90;;;;;;5006088;28;20229;-89
2021/06/20 09:42:06;;;;;;;2.33;1.10;;;16.30;99.90;;;;;;5003532;28;20213;-88
2021/06/20 09:44:54;;;;;;;1.93;0.77;;;16.20;99.90;;;;;;5009259;28;20230;-88
2021/06/20 09:47:26;;;;;;;2.53;1.00;;;16.30;99.90;;;;;;5003940;28;20230;-89
2021/06/20 09:49:58;;;;;;;2.40;0.93;;;16.30;99.90;;;;;;5002003;28;20220;-89
2021/06/20 09:52:30;;;;;;;1.93;0.80;;;16.30;99.90;;;;;;5015460;28;20220;-89
2021/06/20 09:55:03;;;;;;;1.73;1.00;;;16.30;99.90;;;;;;5015939;28;20308;-89
2021/06/20 09:57:41;;;;;;;2.13;0.93;;;16.20;99.90;;;;;;5015244;28;20241;-89
2021/06/20 10:00:18;;;;;;;2.97;1.20;;;16.30;99.90;;;;;;5014298;28;20213;-88
2021/06/20 10:02:49;;;;;;;2.20;0.90;;;16.30;99.90;;;;;;5015182;28;20209;-89
2021/06/20 10:05:20;;;;;;;2.70;0.90;;;16.20;99.90;;;;;;5015230;28;20260;-88
2021/06/20 10:07:52;;;;;;;1.97;1.10;;;16.20;99.90;;;;;;5015229;28;20333;-89
2021/06/20 10:10:23;;;;;;;2.63;0.83;;;16.20;99.90;;;;;;5002020;28;20253;-88
2021/06/20 10:12:54;;;;;;;1.50;1.00;;;16.20;99.90;;;;;;4995340;28;20293;-88
2021/06/20 10:15:31;;;;;;;2.47;0.90;;;16.30;99.90;;;;;;4995689;28;20210;-88
2021/06/20 10:18:03;;;;;;;2.97;1.20;;;16.30;99.90;;;;;;4995760;28;20300;-88
2021/06/20 10:20:36;;;;;;;1.77;0.97;;;16.40;99.90;;;;;;4994433;28;20241;-88
2021/06/20 10:23:17;;;;;;;2.83;1.03;;;16.40;99.90;;;;;;4995031;28;20246;-89
2021/06/20 10:25:48;;;;;;;1.30;0.87;;;16.30;99.90;;;;;;4994485;28;20226;-88
2021/06/20 10:28:22;;;;;;;1.37;0.90;;;16.30;99.90;;;;;;4995248;28;20214;-88
2021/06/20 10:31:06;;;;;;;2.77;1.10;;;16.30;99.90;;;;;;4994285;28;20226;-88
2021/06/20 10:33:37;;;;;;;1.20;1.00;;;16.30;99.90;;;;;;4995064;28;20293;-88
2021/06/20 10:36:10;;;;;;;1.83;0.80;;;16.30;99.90;;;;;;4994616;28;20246;-88
2021/06/20 10:38:44;;;;;;;1.77;0.90;;;16.30;99.90;;;;;;4993784;28;20678;-88
2021/06/20 10:41:24;;;;;;;1.63;0.83;;;16.20;99.90;;;;;;4994192;28;20237;-88
2021/06/20 10:43:59;;;;;;;3.20;0.97;;;16.10;99.90;;;;;;5006308;28;20293;-88
2021/06/20 10:46:32;;;;;;;1.50;0.80;;;16.00;99.90;;;;;;4996039;28;20337;-88
2021/06/20 10:49:15;;;;;;;2.90;0.90;;;15.90;99.90;;;;;;4994229;28;20257;-88
2021/06/20 10:51:46;;;;;;;1.70;0.87;;;15.90;99.90;;;;;;4994299;28;20638;-88
2021/06/20 10:54:29;;;;;;;2.07;0.97;;;15.70;99.90;;;;;;4995094;28;20240;-88
2021/06/20 10:57:01;;;;;;;3.00;1.03;;;15.70;99.90;;;;;;4995971;28;20230;-89
2021/06/20 10:59:32;;;;;;;1.17;0.90;;;15.60;99.90;;;;;;4996616;28;20245;-88
2021/06/20 11:02:07;;;;;;;1.37;0.90;;;15.60;99.90;;;;;;4994021;28;20206;-88
2021/06/20 11:04:43;;;;;;;1.77;0.80;;;15.50;99.90;;;;;;4994869;28;20233;-88
2021/06/20 11:07:26;;;;;;;2.60;1.10;;;15.40;99.90;;;;;;4993909;28;20269;-88
2021/06/20 11:09:58;;;;;;;1.87;1.00;;;15.40;99.90;;;;;;5001164;28;20698;-89
2021/06/20 11:12:29;;;;;;;1.60;1.00;;;15.30;99.90;;;;;;5009031;28;20317;-88
2021/06/20 11:15:00;;;;;;;1.20;0.90;;;15.20;99.90;;;;;;5014720;28;20202;-88
2021/06/20 11:17:40;;;;;;;3.20;1.00;;;15.10;99.90;;;;;;5014686;28;20209;-88
2021/06/20 11:20:15;;;;;;;1.30;1.00;;;15.10;99.90;;;;;;4995772;28;20240;-89
2021/06/20 11:22:47;;;;;;;2.97;0.90;;;15.00;99.90;;;;;;4989232;28;20624;-88
2021/06/20 11:25:25;;;;;;;3.83;1.10;;;15.00;99.90;;;;;;4975939;28;20285;-88
2021/06/20 11:27:57;;;;;;;2.10;1.10;;;15.00;99.90;;;;;;4974922;28;20230;-88
2021/06/20 11:30:28;;;;;;;3.47;1.23;;;15.00;99.90;;;;;;4995350;28;20194;-88
2021/06/20 11:33:01;;;;;;;2.83;0.90;;;14.90;99.90;;;;;;5028902;28;20191;-88
2021/06/20 11:35:34;;;;;;;1.97;1.07;;;14.90;99.90;;;;;;5015060;28;20207;-88
2021/06/20 11:38:05;;;;;;;2.00;0.90;;;14.80;99.90;;;;;;4976149;28;20231;-88
2021/06/20 11:40:35;;;;;;;2.90;1.20;;;14.80;99.90;;;;;;4988241;28;20601;-88
2021/06/20 11:43:06;;;;;;;3.30;1.00;;;14.80;99.90;;;;;;4994338;28;20369;-88
2021/06/20 11:45:39;;;;;;;2.57;1.17;;;14.70;99.90;;;;;;5003935;28;20296;-88
2021/06/20 11:48:11;;;;;;;2.93;0.93;;;14.60;99.90;;;;;;5013762;28;20209;-88
2021/06/20 11:50:42;;;;;;;2.73;1.30;;;14.60;99.90;;;;;;5014550;28;20229;-88
2021/06/20 11:53:16;;;;;;;1.87;1.00;;;14.60;99.90;;;;;;5017897;28;20240;-88
2021/06/20 11:55:48;;;;;;;3.07;1.30;;;14.60;99.90;;;;;;4979290;28;20585;-88
2021/06/20 11:58:20;;;;;;;3.40;1.10;;;14.60;99.90;;;;;;4979177;28;20234;-88
2021/06/20 12:00:52;;;;;;;2.20;1.00;;;14.50;99.90;;;;;;4977614;28;20230;-88
2021/06/20 12:03:26;;;;;;;1.97;1.07;;;14.50;99.90;;;;;;4988986;28;20242;-88
2021/06/20 12:06:01;;;;;;;0.80;0.80;;;14.50;99.90;;;;;;4998051;28;20244;-88
2021/06/20 12:08:35;;;;;;;1.60;0.90;;;14.40;99.90;;;;;;4998204;28;20244;-88
2021/06/20 12:11:06;;;;;;;1.97;1.10;;;14.40;99.90;;;;;;4997882;28;20249;-88
2021/06/20 12:13:44;;;;;;;1.33;0.80;;;14.30;99.90;;;;;;5017912;28;20232;-89
2021/06/20 12:16:15;;;;;;;3.97;1.23;;;14.30;99.90;;;;;;5017366;28;20229;-90
2021/06/20 12:18:48;;;;;;;3.27;1.00;;;14.30;99.90;;;;;;5017319;28;20202;-88
2021/06/20 12:21:29;;;;;;;3.80;1.20;;;14.20;99.90;;;;;;5003987;28;20218;-90
2021/06/20 12:24:02;;;;;;;2.10;0.97;;;14.30;99.90;;;;;;4996557;28;20252;-88
2021/06/20 12:26:35;;;;;;;1.67;0.93;;;14.30;99.90;;;;;;4996894;28;20310;-90
2021/06/20 12:29:07;;;;;;;1.27;0.90;;;14.20;99.90;;;;;;4997536;28;20321;-88
2021/06/20 12:31:38;;;;;;;2.00;0.97;;;14.20;99.90;;;;;;4996824;28;20317;-88
2021/06/20 12:34:11;;;;;;;1.40;0.90;;;14.20;99.90;;;;;;4997759;28;20705;-88
2021/06/20 12:36:43;;;;;;;1.10;0.93;;;14.20;99.90;;;;;;4998355;28;20297;-88
2021/06/20 12:39:14;;;;;;;2.23;1.00;;;14.20;99.90;;;;;;4997097;28;20272;-88
2021/06/20 12:41:45;;;;;;;2.00;0.90;;;14.20;99.90;;;;;;4996342;28;20620;-88
2021/06/20 12:44:16;;;;;;;3.03;1.00;;;14.20;99.90;;;;;;4997457;28;20245;-87
2021/06/20 12:46:49;;;;;;;1.40;1.13;;;14.20;99.90;;;;;;4997263;28;20717;-88
2021/06/20 12:49:22;;;;;;;7.07;1.20;;;14.20;99.90;;;;;;4997681;28;20260;-88
2021/06/20 12:51:53;;;;;;;2.20;1.03;;;14.10;99.90;;;;;;4996573;28;20328;-89
2021/06/20 12:54:25;;;;;;;2.17;0.90;;;14.20;99.90;;;;;;5000091;28;20226;-89
2021/06/20 12:57:04;;;;;;;3.37;1.37;;;14.20;99.90;;;;;;4997210;28;20314;-89
2021/06/20 12:59:39;;;;;;;3.40;1.20;;;14.20;99.90;;;;;;4997547;28;20285;-88
2021/06/20 13:02:10;;;;;;;3.20;0.90;;;14.30;99.90;;;;;;4995124;28;20241;-89
2021/06/20 13:04:50;;;;;;;2.73;1.07;;;14.20;99.90;;;;;;5001272;28;20617;-89
2021/06/20 13:07:39;;;;;;;4.50;1.07;;;14.20;99.90;;;;;;5016993;28;20233;-89
2021/06/20 13:10:16;;;;;;;1.93;1.10;;;14.20;99.90;;;;;;5005963;28;20230;-89
2021/06/20 13:12:46;;;;;;;2.27;1.17;;;14.20;99.90;;;;;;4999510;28;20238;-89